Time;durP1;ratioP1;P1;durP2;ratioP2;P2;SDS_P1;SDS_P2;PMS_P1;PMS_P2;Temp;Humidity;BMP_temperature;BMP_pressure;BME280_temperature;BME280_humidity;BME280_pressure;Samples;Min_cycle;Max_cycle;Signal;HPM_P1;HPM_P2
2021/01/19 00:00:20;;;;;;;12.00;4.97;;;16.10;59.40;;;;;;4975395;28;20031;-68
2021/01/19 00:02:45;;;;;;;12.88;5.93;;;16.10;59.40;;;;;;4958987;28;20054;-69
2021/01/19 00:05:11;;;;;;;12.30;5.07;;;16.10;59.40;;;;;;4963072;28;20034;-69
2021/01/19 00:07:37;;;;;;;10.32;4.78;;;16.20;59.30;;;;;;4977075;28;20483;-70
2021/01/19 00:10:04;;;;;;;10.95;5.22;;;16.20;59.20;;;;;;4977089;28;20081;-70
2021/01/19 00:12:29;;;;;;;10.18;5.70;;;16.20;59.10;;;;;;4994373;28;20507;-70
2021/01/19 00:14:55;;;;;;;9.82;4.75;;;16.20;59.00;;;;;;4982195;28;20062;-69
2021/01/19 00:17:20;;;;;;;12.63;4.95;;;16.10;59.10;;;;;;4957634;28;20029;-69
2021/01/19 00:19:46;;;;;;;12.27;4.80;;;16.00;59.00;;;;;;4973807;28;20110;-68
2021/01/19 00:22:11;;;;;;;10.48;4.97;;;16.10;59.30;;;;;;4985054;28;20062;-69
2021/01/19 00:24:37;;;;;;;9.25;4.72;;;16.10;59.20;;;;;;4957440;28;20022;-69
2021/01/19 00:27:02;;;;;;;10.18;4.65;;;16.00;59.10;;;;;;4993691;28;20117;-69
2021/01/19 00:29:29;;;;;;;9.95;4.75;;;16.10;59.40;;;;;;4994281;28;20033;-69
2021/01/19 00:31:54;;;;;;;9.43;4.85;;;16.10;59.40;;;;;;4967629;28;20057;-69
2021/01/19 00:34:20;;;;;;;9.88;5.40;;;16.10;59.10;;;;;;4957374;28;20050;-69
2021/01/19 00:36:47;;;;;;;8.65;4.40;;;16.10;59.20;;;;;;4957203;28;20499;-69
2021/01/19 00:39:12;;;;;;;9.35;4.93;;;16.10;58.80;;;;;;4970600;28;20047;-69
2021/01/19 00:41:38;;;;;;;10.82;4.55;;;16.10;58.90;;;;;;4953731;28;20058;-69
2021/01/19 00:44:04;;;;;;;10.68;4.47;;;16.10;59.10;;;;;;4957043;28;20563;-69
2021/01/19 00:46:29;;;;;;;9.55;4.70;;;16.00;59.00;;;;;;4985204;28;20030;-71
2021/01/19 00:48:55;;;;;;;9.98;5.68;;;16.10;59.00;;;;;;4994068;28;20031;-69
2021/01/19 00:51:21;;;;;;;9.70;4.65;;;16.10;59.00;;;;;;4977050;28;20051;-69
2021/01/19 00:53:47;;;;;;;9.05;4.10;;;16.00;59.00;;;;;;4956981;28;20164;-69
2021/01/19 00:56:12;;;;;;;9.55;4.18;;;16.00;59.00;;;;;;4964873;28;20443;-69
2021/01/19 00:58:38;;;;;;;7.90;3.97;;;16.00;59.10;;;;;;4974561;28;20065;-69
2021/01/19 01:01:03;;;;;;;9.20;4.30;;;16.00;58.90;;;;;;4956505;28;20019;-70
2021/01/19 01:03:29;;;;;;;9.60;4.85;;;16.00;58.80;;;;;;4964027;28;20023;-69
2021/01/19 01:05:58;;;;;;;8.85;4.25;;;16.00;58.80;;;;;;4962034;28;20026;-69
2021/01/19 01:08:24;;;;;;;8.32;4.43;;;16.00;59.00;;;;;;4975897;28;20498;-69
2021/01/19 01:10:53;;;;;;;9.88;4.38;;;15.90;58.80;;;;;;4993577;28;20058;-69
2021/01/19 01:13:20;;;;;;;7.75;4.13;;;15.90;58.80;;;;;;4975673;28;20125;-68
2021/01/19 01:15:46;;;;;;;7.68;4.63;;;15.90;58.70;;;;;;4971714;28;20544;-69
2021/01/19 01:18:12;;;;;;;8.77;4.45;;;16.00;58.80;;;;;;4957216;28;20034;-69
2021/01/19 01:20:39;;;;;;;8.30;4.18;;;15.90;58.70;;;;;;4956562;28;20052;-69
2021/01/19 01:23:04;;;;;;;8.20;3.90;;;15.90;58.90;;;;;;4973516;28;20023;-69
2021/01/19 01:25:30;;;;;;;8.02;4.28;;;15.90;58.80;;;;;;4975358;28;20033;-69
2021/01/19 01:27:56;;;;;;;7.25;3.53;;;15.90;58.70;;;;;;4993242;28;20084;-69
2021/01/19 01:30:21;;;;;;;26.27;4.50;;;15.90;58.80;;;;;;4975679;28;20014;-68
2021/01/19 01:32:50;;;;;;;9.63;4.47;;;15.90;58.70;;;;;;4962291;28;20003;-68
2021/01/19 01:35:20;;;;;;;6.68;3.65;;;15.90;58.60;;;;;;4956075;28;20027;-70
2021/01/19 01:37:48;;;;;;;8.70;5.45;;;15.90;58.50;;;;;;4954340;29;20043;-69
2021/01/19 01:40:17;;;;;;;7.57;4.28;;;15.90;58.60;;;;;;4954263;29;20090;-67
2021/01/19 01:42:42;;;;;;;7.72;3.85;;;15.90;58.50;;;;;;4961723;28;20031;-69
2021/01/19 01:45:09;;;;;;;9.75;4.10;;;15.90;58.50;;;;;;4991891;28;20510;-68
2021/01/19 01:47:34;;;;;;;8.07;4.50;;;15.90;58.70;;;;;;4975105;28;20026;-69
2021/01/19 01:50:00;;;;;;;14.02;11.30;;;15.90;58.40;;;;;;4978013;28;20029;-68
2021/01/19 01:52:28;;;;;;;10.55;7.45;;;15.90;58.70;;;;;;4973187;28;20387;-69
2021/01/19 01:54:55;;;;;;;9.02;5.43;;;15.90;58.60;;;;;;4973137;28;20098;-68
2021/01/19 01:57:22;;;;;;;21.13;16.92;;;15.80;58.40;;;;;;4970340;28;20022;-69
2021/01/19 01:59:49;;;;;;;11.57;9.05;;;15.90;58.70;;;;;;4982640;28;20101;-68
2021/01/19 02:02:15;;;;;;;17.83;13.88;;;15.80;58.60;;;;;;4958162;28;20030;-69
2021/01/19 02:04:41;;;;;;;10.18;5.90;;;15.80;58.50;;;;;;4980615;28;20529;-69
2021/01/19 02:07:18;;;;;;;8.82;5.40;;;15.80;58.40;;;;;;4990580;28;20037;-67
2021/01/19 02:09:49;;;;;;;10.43;6.10;;;15.80;58.60;;;;;;4974872;28;20027;-66
2021/01/19 02:12:16;;;;;;;;;;;15.80;58.40;;;;;;4981038;28;20023;-69
2021/01/19 02:14:54;;;;;;;9.80;6.13;;;15.80;58.50;;;;;;4990400;28;19914;-69
2021/01/19 02:18:09;;;;;;;9.57;5.05;;;15.80;58.50;;;;;;4985931;28;20516;-70
2021/01/19 02:21:10;;;;;;;8.00;5.50;;;15.80;58.50;;;;;;4950173;28;20190;-69
2021/01/19 02:23:58;;;;;;;9.90;8.20;;;15.80;58.50;;;;;;4902941;29;20038;-69
2021/01/19 02:26:57;;;;;;;8.98;5.70;;;15.80;58.40;;;;;;4967711;28;20038;-69
2021/01/19 02:29:25;;;;;;;9.70;5.53;;;15.70;58.40;;;;;;4968808;28;20038;-69
2021/01/19 02:32:00;;;;;;;8.70;4.70;;;15.80;58.50;;;;;;4971989;28;20033;-68
2021/01/19 02:34:50;;;;;;;7.70;4.65;;;15.70;58.40;;;;;;4972485;28;20019;-69
2021/01/19 02:37:23;;;;;;;8.63;5.03;;;15.70;58.30;;;;;;4953228;29;20442;-69
2021/01/19 02:40:03;;;;;;;9.45;5.10;;;15.70;58.50;;;;;;4936080;29;20082;-69
2021/01/19 02:42:42;;;;;;;9.97;4.73;;;15.70;58.30;;;;;;4952901;29;20110;-68
2021/01/19 02:45:09;;;;;;;8.30;4.60;;;15.70;58.20;;;;;;4935722;29;20294;-68
2021/01/19 02:47:35;;;;;;;8.15;4.53;;;15.70;58.40;;;;;;4935386;29;20055;-68
2021/01/19 02:50:04;;;;;;;7.68;4.32;;;15.70;58.40;;;;;;4953001;29;20094;-69
2021/01/19 02:52:30;;;;;;;8.25;4.45;;;15.70;58.30;;;;;;4935459;29;20062;-69
2021/01/19 02:54:56;;;;;;;8.38;4.43;;;15.70;58.10;;;;;;4952995;29;20055;-70
2021/01/19 02:57:30;;;;;;;8.95;4.47;;;15.70;58.30;;;;;;4952955;29;20039;-70
2021/01/19 03:00:02;;;;;;;10.18;4.22;;;15.70;58.20;;;;;;4952938;29;20043;-68
2021/01/19 03:02:32;;;;;;;7.20;4.47;;;15.70;58.00;;;;;;4948813;28;20027;-69
2021/01/19 03:05:00;;;;;;;7.78;4.57;;;15.70;58.00;;;;;;4971214;28;20035;-69
2021/01/19 03:07:30;;;;;;;7.40;3.90;;;15.70;58.10;;;;;;4972020;28;20539;-69
2021/01/19 03:10:30;;;;;;;7.38;4.22;;;15.70;58.20;;;;;;4954477;28;20042;-70
2021/01/19 03:12:56;;;;;;;7.40;3.90;;;15.70;58.00;;;;;;4964237;28;20029;-70
2021/01/19 03:15:21;;;;;;;8.73;4.50;;;15.70;57.90;;;;;;4971219;28;20035;-67
2021/01/19 03:17:47;;;;;;;7.47;3.90;;;15.70;57.90;;;;;;4970802;28;20026;-68
2021/01/19 03:20:14;;;;;;;10.75;3.90;;;15.70;58.10;;;;;;4971818;28;20042;-68
2021/01/19 03:22:40;;;;;;;10.15;4.00;;;15.70;58.00;;;;;;4971765;28;20058;-69
2021/01/19 03:25:07;;;;;;;7.80;3.80;;;15.60;57.90;;;;;;4971904;28;20511;-69
2021/01/19 03:27:32;;;;;;;9.15;3.72;;;15.60;58.10;;;;;;4970407;28;20039;-69
2021/01/19 03:29:58;;;;;;;5.97;3.20;;;15.60;58.10;;;;;;4970737;28;20034;-70
2021/01/19 03:32:23;;;;;;;8.15;3.55;;;15.60;58.10;;;;;;4971858;28;20038;-69
2021/01/19 03:34:49;;;;;;;8.43;3.47;;;15.60;58.10;;;;;;4972210;28;20027;-68
2021/01/19 03:37:15;;;;;;;8.38;3.63;;;15.60;58.10;;;;;;4961330;28;20031;-68
2021/01/19 03:39:40;;;;;;;7.90;3.80;;;15.60;58.00;;;;;;4982535;28;20061;-70
2021/01/19 03:42:06;;;;;;;9.50;3.60;;;15.60;58.10;;;;;;4982016;28;20027;-69
2021/01/19 03:44:31;;;;;;;9.40;3.55;;;15.60;58.00;;;;;;4987511;28;20034;-68
2021/01/19 03:46:57;;;;;;;7.32;3.17;;;15.60;58.00;;;;;;4977452;28;20030;-70
2021/01/19 03:49:22;;;;;;;13.45;4.40;;;15.60;58.00;;;;;;4971487;28;20030;-70
2021/01/19 03:51:48;;;;;;;9.05;3.67;;;15.60;58.10;;;;;;4982247;28;20026;-68
2021/01/19 03:54:13;;;;;;;7.18;3.58;;;15.50;57.90;;;;;;4973639;28;20057;-69
2021/01/19 03:56:39;;;;;;;6.93;3.10;;;15.50;58.20;;;;;;4982432;28;20037;-69
2021/01/19 03:59:05;;;;;;;65.32;37.40;;;15.60;58.10;;;;;;4960804;28;20031;-70
2021/01/19 04:01:30;;;;;;;206.55;121.10;;;15.50;58.00;;;;;;4971403;28;20031;-68
2021/01/19 04:03:56;;;;;;;360.75;225.05;;;15.50;58.20;;;;;;4971255;28;20038;-69
2021/01/19 04:06:21;;;;;;;74.55;46.78;;;15.50;58.10;;;;;;4953652;28;20034;-68
2021/01/19 04:08:47;;;;;;;212.07;128.90;;;15.40;58.10;;;;;;4971190;28;20798;-69
2021/01/19 04:11:12;;;;;;;166.07;103.18;;;15.50;57.90;;;;;;4984524;28;20042;-67
2021/01/19 04:13:38;;;;;;;103.45;63.83;;;15.40;58.10;;;;;;4990517;28;20033;-68
2021/01/19 04:16:04;;;;;;;103.60;63.33;;;15.40;57.90;;;;;;4990604;28;20089;-67
2021/01/19 04:18:29;;;;;;;99.15;61.08;;;15.50;58.00;;;;;;4973827;28;20034;-69
2021/01/19 04:20:55;;;;;;;79.85;50.65;;;15.50;58.10;;;;;;4970732;28;20023;-69
2021/01/19 04:23:21;;;;;;;75.20;47.85;;;15.50;57.90;;;;;;4971127;28;20033;-68
2021/01/19 04:25:48;;;;;;;117.60;84.38;;;15.50;57.70;;;;;;4955587;28;20027;-68
2021/01/19 04:28:15;;;;;;;70.80;46.17;;;15.50;57.70;;;;;;4971382;28;20026;-69
2021/01/19 04:30:42;;;;;;;68.65;46.08;;;15.50;57.70;;;;;;4993981;28;20102;-68
2021/01/19 04:33:08;;;;;;;58.97;39.33;;;15.40;57.80;;;;;;4976146;28;20033;-70
2021/01/19 04:35:34;;;;;;;65.18;44.47;;;15.40;57.70;;;;;;4963959;28;20142;-69
2021/01/19 04:38:00;;;;;;;67.55;44.80;;;15.40;57.60;;;;;;4969030;28;20503;-69
2021/01/19 04:40:25;;;;;;;59.80;40.08;;;15.40;57.60;;;;;;4993787;28;20069;-69
2021/01/19 04:42:51;;;;;;;57.65;38.85;;;15.40;57.70;;;;;;4976201;28;20558;-69
2021/01/19 04:45:17;;;;;;;47.67;33.10;;;15.30;57.80;;;;;;4990243;28;20420;-68
2021/01/19 04:47:43;;;;;;;54.78;38.17;;;15.30;57.60;;;;;;4976775;28;20050;-68
2021/01/19 04:50:11;;;;;;;50.75;36.95;;;15.30;57.60;;;;;;4974049;28;20059;-70
2021/01/19 04:52:41;;;;;;;51.05;35.97;;;15.40;57.90;;;;;;4974039;28;20018;-68
2021/01/19 04:55:22;;;;;;;46.05;32.85;;;15.20;57.70;;;;;;4975374;28;20473;-68
2021/01/19 04:58:13;;;;;;;46.67;33.22;;;15.30;57.80;;;;;;4937802;29;20031;-69
2021/01/19 05:00:40;;;;;;;40.03;26.90;;;15.30;57.80;;;;;;4962951;28;20038;-68
2021/01/19 05:03:17;;;;;;;39.13;27.60;;;15.30;57.20;;;;;;4993472;28;20057;-69
2021/01/19 05:05:57;;;;;;;38.60;26.52;;;15.20;57.90;;;;;;4967827;28;20682;-70
2021/01/19 05:08:55;;;;;;;37.03;25.60;;;15.10;58.20;;;;;;4960808;28;20031;-70
2021/01/19 05:11:30;;;;;;;34.35;23.88;;;15.20;57.90;;;;;;4956053;28;20508;-69
2021/01/19 05:14:01;;;;;;;36.30;24.38;;;15.30;57.80;;;;;;4952635;28;20042;-69
2021/01/19 05:16:29;;;;;;;33.75;21.42;;;15.20;57.80;;;;;;4959719;28;20058;-69
2021/01/19 05:18:56;;;;;;;31.55;20.90;;;15.20;58.00;;;;;;4941805;28;20046;-70
2021/01/19 05:21:21;;;;;;;32.58;20.05;;;15.20;57.90;;;;;;4955501;28;20022;-73
2021/01/19 05:23:48;;;;;;;34.15;21.25;;;15.30;57.80;;;;;;4942139;28;20404;-70
2021/01/19 05:26:16;;;;;;;30.92;18.48;;;15.20;57.90;;;;;;4954521;28;20038;-69
2021/01/19 05:28:53;;;;;;;26.52;17.52;;;15.10;58.10;;;;;;4961804;28;20716;-70
2021/01/19 05:31:23;;;;;;;28.42;18.02;;;15.30;58.00;;;;;;4969582;28;20811;-74
2021/01/19 05:33:52;;;;;;;30.10;17.73;;;15.20;57.90;;;;;;4957039;28;20027;-69
2021/01/19 05:36:41;;;;;;;28.27;16.77;;;15.20;58.10;;;;;;4955906;28;20074;-67
2021/01/19 05:39:10;;;;;;;27.65;18.55;;;15.20;58.10;;;;;;4946395;28;20039;-66
2021/01/19 05:41:43;;;;;;;27.70;16.90;;;15.20;58.30;;;;;;4930981;29;20113;-67
2021/01/19 05:44:10;;;;;;;24.85;14.82;;;15.10;58.20;;;;;;4929558;29;20043;-70
2021/01/19 05:46:41;;;;;;;22.35;13.98;;;15.20;58.00;;;;;;4944840;28;20037;-69
2021/01/19 05:49:12;;;;;;;23.27;14.07;;;15.20;58.10;;;;;;4966897;28;20023;-70
2021/01/19 05:51:44;;;;;;;22.50;14.02;;;15.20;58.20;;;;;;4966522;28;20058;-69
2021/01/19 05:54:20;;;;;;;24.10;14.63;;;15.20;58.30;;;;;;4974247;28;20036;-70
2021/01/19 05:56:48;;;;;;;24.05;13.45;;;15.20;58.30;;;;;;4964126;28;20062;-69
2021/01/19 05:59:26;;;;;;;21.15;13.25;;;15.20;58.20;;;;;;4984755;28;20089;-70
2021/01/19 06:02:03;;;;;;;22.20;12.73;;;15.20;58.50;;;;;;4930118;29;20063;-71
2021/01/19 06:04:31;;;;;;;26.83;13.48;;;15.20;59.20;;;;;;4963910;28;20677;-70
2021/01/19 06:06:58;;;;;;;22.05;12.48;;;15.30;59.00;;;;;;4965295;28;20081;-70
2021/01/19 06:09:24;;;;;;;24.77;12.40;;;15.30;58.80;;;;;;4965500;28;20022;-70
2021/01/19 06:11:54;;;;;;;21.77;11.93;;;15.30;59.10;;;;;;4965403;28;20418;-70
2021/01/19 06:14:24;;;;;;;19.48;11.25;;;15.30;59.10;;;;;;4969049;28;20035;-70
2021/01/19 06:16:50;;;;;;;21.50;10.75;;;15.30;59.30;;;;;;4986461;28;20085;-71
2021/01/19 06:19:29;;;;;;;21.15;10.70;;;15.40;59.20;;;;;;4986190;28;20428;-71
2021/01/19 06:21:55;;;;;;;20.23;10.32;;;15.50;58.90;;;;;;4985745;28;20149;-72
2021/01/19 06:24:32;;;;;;;17.90;9.38;;;15.50;58.90;;;;;;4975290;28;20031;-70
2021/01/19 06:26:57;;;;;;;24.65;10.52;;;15.50;59.30;;;;;;4980153;28;20066;-68
2021/01/19 06:29:24;;;;;;;19.10;9.30;;;15.50;58.70;;;;;;4985978;28;20061;-70
2021/01/19 06:31:51;;;;;;;18.42;9.93;;;15.50;59.10;;;;;;4985501;28;20030;-69
2021/01/19 06:34:38;;;;;;;19.80;9.05;;;15.50;59.20;;;;;;4983418;28;20488;-71
2021/01/19 06:37:05;;;;;;;19.30;9.27;;;15.50;59.00;;;;;;4970941;28;20524;-72
2021/01/19 06:39:37;;;;;;;20.88;8.50;;;15.50;59.30;;;;;;4966229;28;20031;-69
2021/01/19 06:42:10;;;;;;;14.50;8.20;;;15.50;58.90;;;;;;4949879;28;20042;-70
2021/01/19 06:44:38;;;;;;;18.08;8.45;;;15.50;58.90;;;;;;4985609;28;20520;-70
2021/01/19 06:47:06;;;;;;;16.75;8.05;;;15.50;58.80;;;;;;4985294;28;20042;-71
2021/01/19 06:49:33;;;;;;;17.27;8.13;;;15.50;58.90;;;;;;4984480;28;20387;-69
2021/01/19 06:52:05;;;;;;;15.57;8.00;;;15.50;58.90;;;;;;4957391;28;20030;-70
2021/01/19 06:54:39;;;;;;;;;;;15.60;58.90;;;;;;4968522;28;20521;-71
2021/01/19 06:57:25;;;;;;;15.07;7.03;;;15.50;58.70;;;;;;4985496;28;19949;-69
2021/01/19 07:00:05;;;;;;;13.20;6.93;;;15.50;58.90;;;;;;4965638;28;20030;-71
2021/01/19 07:02:36;;;;;;;14.95;7.47;;;15.50;58.90;;;;;;4948542;28;20082;-71
2021/01/19 07:05:11;;;;;;;15.77;7.13;;;15.40;59.00;;;;;;4954234;28;20456;-72
2021/01/19 07:07:50;;;;;;;17.10;6.70;;;15.40;59.00;;;;;;4965381;28;20043;-71
2021/01/19 07:10:45;;;;;;;14.85;6.93;;;15.40;59.20;;;;;;4945926;29;20078;-72
2021/01/19 07:13:21;;;;;;;13.80;5.75;;;15.50;59.10;;;;;;4948961;29;20030;-71
2021/01/19 07:15:56;;;;;;;15.30;6.03;;;15.50;58.70;;;;;;4936875;28;20074;-70
2021/01/19 07:19:16;;;;;;;15.27;6.20;;;15.50;58.90;;;;;;4971560;28;20050;-70
2021/01/19 07:21:54;;;;;;;14.30;5.60;;;15.50;58.90;;;;;;4909149;29;20188;-70
2021/01/19 07:24:24;;;;;;;13.55;6.00;;;15.50;58.90;;;;;;4964983;28;20046;-70
2021/01/19 07:26:52;;;;;;;14.10;5.85;;;15.40;59.00;;;;;;4955282;28;20109;-70
2021/01/19 07:29:20;;;;;;;11.85;5.43;;;15.40;59.30;;;;;;4962629;28;20027;-70
2021/01/19 07:31:46;;;;;;;11.15;5.20;;;15.40;59.20;;;;;;4970618;28;20023;-71
2021/01/19 07:34:15;;;;;;;13.82;5.45;;;15.40;59.40;;;;;;4973921;28;20106;-69
2021/01/19 07:36:40;;;;;;;13.23;4.93;;;15.40;59.30;;;;;;4967708;28;20105;-70
2021/01/19 07:39:15;;;;;;;11.38;4.90;;;15.40;59.00;;;;;;4956841;28;20066;-69
2021/01/19 07:41:41;;;;;;;10.18;4.70;;;15.30;59.10;;;;;;4988899;28;20026;-70
2021/01/19 07:44:06;;;;;;;13.95;4.90;;;15.30;58.90;;;;;;4983281;28;20038;-70
2021/01/19 07:46:32;;;;;;;10.52;5.05;;;15.30;59.00;;;;;;4964091;28;20045;-69
2021/01/19 07:49:03;;;;;;;11.70;4.70;;;15.30;59.50;;;;;;4972880;28;20033;-69
2021/01/19 07:51:47;;;;;;;14.52;4.72;;;15.40;59.90;;;;;;4971945;28;20030;-69
2021/01/19 07:54:25;;;;;;;10.13;4.50;;;15.40;60.30;;;;;;4988271;28;20081;-69
2021/01/19 07:56:51;;;;;;;9.07;3.97;;;15.40;60.60;;;;;;4960257;28;20034;-69
2021/01/19 07:59:21;;;;;;;10.05;4.53;;;15.30;61.30;;;;;;4969451;28;20037;-68
2021/01/19 08:01:54;;;;;;;8.60;4.05;;;15.30;61.40;;;;;;4973811;28;20051;-70
2021/01/19 08:04:37;;;;;;;9.25;3.85;;;15.20;62.10;;;;;;4974131;28;20037;-69
2021/01/19 08:07:39;;;;;;;8.65;3.85;;;15.30;62.20;;;;;;4978466;28;20042;-68
2021/01/19 08:10:29;;;;;;;11.18;4.10;;;15.40;61.00;;;;;;4984166;28;20027;-68
2021/01/19 08:12:59;;;;;;;9.43;3.75;;;15.40;61.10;;;;;;4980279;28;20492;-68
2021/01/19 08:15:28;;;;;;;9.00;3.65;;;15.40;61.30;;;;;;4973711;28;20502;-69
2021/01/19 08:17:56;;;;;;;8.90;3.83;;;15.40;61.30;;;;;;4985565;28;20066;-69
2021/01/19 08:20:26;;;;;;;8.70;3.65;;;15.30;61.30;;;;;;4993070;28;20516;-70
2021/01/19 08:22:54;;;;;;;8.82;3.30;;;15.30;61.30;;;;;;4973937;28;20044;-70
2021/01/19 08:25:39;;;;;;;8.40;3.47;;;15.30;61.50;;;;;;4956380;28;20026;-69
2021/01/19 08:28:04;;;;;;;9.13;3.25;;;15.20;60.70;;;;;;4955599;28;20085;-72
2021/01/19 08:30:31;;;;;;;9.82;3.20;;;15.20;59.90;;;;;;4966905;28;20151;-70
2021/01/19 08:32:58;;;;;;;10.90;3.20;;;15.10;60.00;;;;;;4966028;28;20033;-69
2021/01/19 08:35:28;;;;;;;8.18;3.05;;;15.20;60.00;;;;;;4958852;28;20046;-69
2021/01/19 08:38:01;;;;;;;11.10;2.95;;;15.20;60.10;;;;;;4973416;28;20031;-70
2021/01/19 08:40:28;;;;;;;9.52;3.35;;;15.20;60.10;;;;;;4987862;28;20030;-69
2021/01/19 08:42:54;;;;;;;8.48;2.90;;;15.20;60.50;;;;;;4993096;28;20035;-69
2021/01/19 08:45:39;;;;;;;9.77;3.30;;;15.20;60.40;;;;;;4983478;28;20107;-71
2021/01/19 08:48:06;;;;;;;9.85;3.13;;;15.10;60.10;;;;;;4980574;28;20113;-71
2021/01/19 08:50:36;;;;;;;7.53;2.75;;;15.10;60.20;;;;;;4959649;28;20029;-71
2021/01/19 08:53:09;;;;;;;8.00;3.33;;;15.10;60.00;;;;;;4973811;28;20066;-69
2021/01/19 08:55:35;;;;;;;9.90;2.92;;;15.00;59.70;;;;;;4972843;28;20109;-70
2021/01/19 08:58:01;;;;;;;8.50;2.53;;;14.90;59.60;;;;;;4971953;28;20069;-69
2021/01/19 09:00:33;;;;;;;12.07;2.75;;;14.80;60.20;;;;;;4955882;28;20031;-68
2021/01/19 09:02:59;;;;;;;11.55;2.70;;;14.90;60.80;;;;;;4974881;28;20075;-71
2021/01/19 09:05:29;;;;;;;14.32;3.10;;;14.80;61.70;;;;;;4975922;28;20050;-64
2021/01/19 09:07:58;;;;;;;17.33;2.92;;;14.80;62.20;;;;;;4975026;28;20038;-65
2021/01/19 09:10:25;;;;;;;15.35;3.30;;;14.80;62.30;;;;;;4966548;28;20019;-64
2021/01/19 09:12:51;;;;;;;21.13;3.50;;;14.90;61.70;;;;;;4985260;28;20484;-65
2021/01/19 09:15:18;;;;;;;12.48;4.10;;;14.80;61.40;;;;;;4958572;28;20039;-66
2021/01/19 09:17:54;;;;;;;17.50;3.70;;;14.70;61.80;;;;;;4958002;28;20031;-65
2021/01/19 09:20:20;;;;;;;20.23;3.33;;;14.70;61.40;;;;;;4957573;28;20081;-64
2021/01/19 09:22:45;;;;;;;11.63;2.80;;;14.80;61.30;;;;;;4970255;28;20023;-67
2021/01/19 09:25:12;;;;;;;13.57;3.10;;;14.80;61.50;;;;;;4964947;28;20381;-66
2021/01/19 09:27:39;;;;;;;12.35;2.63;;;14.60;62.50;;;;;;4984858;28;20034;-63
2021/01/19 09:30:08;;;;;;;13.65;2.70;;;14.70;61.20;;;;;;4981745;28;20027;-63
2021/01/19 09:32:40;;;;;;;14.13;3.05;;;14.80;61.40;;;;;;4961819;28;20114;-64
2021/01/19 09:35:07;;;;;;;14.57;3.20;;;14.70;61.50;;;;;;4979585;28;20483;-64
2021/01/19 09:37:33;;;;;;;13.18;2.53;;;14.80;60.90;;;;;;4966788;28;20393;-63
2021/01/19 09:39:58;;;;;;;10.43;2.60;;;14.80;61.00;;;;;;4962588;28;20037;-64
2021/01/19 09:42:24;;;;;;;11.80;2.53;;;14.80;61.40;;;;;;4969811;28;20053;-63
2021/01/19 09:44:50;;;;;;;8.05;2.05;;;14.80;61.30;;;;;;4964945;28;20050;-64
2021/01/19 09:47:20;;;;;;;8.32;2.00;;;14.70;61.30;;;;;;4930623;28;20081;-63
2021/01/19 09:49:46;;;;;;;6.95;2.13;;;14.70;61.60;;;;;;4971762;28;20031;-63
2021/01/19 09:52:13;;;;;;;9.82;2.03;;;14.60;61.50;;;;;;4976293;28;20033;-63
2021/01/19 09:54:40;;;;;;;9.00;2.30;;;14.70;61.20;;;;;;4980488;28;20027;-62
2021/01/19 09:57:09;;;;;;;9.45;2.20;;;14.70;61.80;;;;;;4966294;28;20026;-65
2021/01/19 09:59:35;;;;;;;6.85;1.80;;;14.70;61.70;;;;;;4959769;28;20041;-64
2021/01/19 10:02:01;;;;;;;8.90;1.85;;;14.50;62.00;;;;;;4972294;28;20109;-63
2021/01/19 10:04:28;;;;;;;7.05;1.95;;;14.40;62.30;;;;;;4974006;28;20062;-63
2021/01/19 10:07:10;;;;;;;10.43;2.03;;;14.40;62.30;;;;;;4972831;28;20579;-63
2021/01/19 10:09:36;;;;;;;7.93;2.20;;;14.40;61.50;;;;;;4971912;28;20027;-64
2021/01/19 10:12:08;;;;;;;9.38;2.10;;;14.50;61.80;;;;;;4964008;28;20113;-64
2021/01/19 10:14:41;;;;;;;6.95;2.20;;;14.60;61.60;;;;;;4963267;28;20026;-64
2021/01/19 10:17:08;;;;;;;7.68;2.03;;;14.50;61.80;;;;;;4961815;28;20030;-64
2021/01/19 10:19:38;;;;;;;20.23;3.03;;;14.40;61.40;;;;;;4982441;28;20031;-64
2021/01/19 10:22:09;;;;;;;42.17;11.98;;;14.50;61.30;;;;;;4965412;28;20031;-65
2021/01/19 10:24:35;;;;;;;18.73;4.63;;;14.40;61.60;;;;;;4956124;28;20519;-63
2021/01/19 10:27:01;;;;;;;19.17;5.28;;;14.40;61.90;;;;;;4972975;28;20034;-63
2021/01/19 10:29:40;;;;;;;18.42;7.82;;;14.40;61.90;;;;;;4952688;28;20042;-63
2021/01/19 10:32:11;;;;;;;16.02;4.47;;;14.40;62.30;;;;;;4957039;28;20022;-63
2021/01/19 10:34:38;;;;;;;15.82;3.90;;;14.40;62.30;;;;;;4955576;28;20054;-64
2021/01/19 10:37:03;;;;;;;13.45;2.35;;;14.40;62.70;;;;;;4973123;28;20488;-64
2021/01/19 10:39:30;;;;;;;15.65;6.28;;;14.40;62.30;;;;;;4955890;28;20035;-64
2021/01/19 10:41:57;;;;;;;18.65;11.38;;;14.30;62.40;;;;;;4973876;28;20019;-64
2021/01/19 10:44:24;;;;;;;155.32;111.93;;;14.10;62.80;;;;;;4961605;28;20054;-63
2021/01/19 10:46:58;;;;;;;35.40;16.27;;;14.10;62.50;;;;;;4974161;28;20033;-64
2021/01/19 10:49:29;;;;;;;58.72;19.45;;;14.40;61.30;;;;;;4961677;28;20085;-64
2021/01/19 10:51:55;;;;;;;123.60;28.83;;;14.60;61.30;;;;;;4971928;28;20037;-63
2021/01/19 10:54:21;;;;;;;57.70;16.55;;;14.80;60.30;;;;;;4971168;28;20027;-65
2021/01/19 10:57:02;;;;;;;58.78;15.55;;;14.90;59.90;;;;;;4991015;28;20399;-64
2021/01/19 10:59:28;;;;;;;;;;;15.10;59.10;;;;;;4970892;28;20057;-64
2021/01/19 11:01:54;;;;;;;48.72;12.75;;;15.10;59.00;;;;;;4978872;28;20374;-63
2021/01/19 11:04:20;;;;;;;42.28;12.60;;;15.30;59.00;;;;;;4969997;28;20034;-63
2021/01/19 11:06:46;;;;;;;39.70;12.30;;;15.40;58.60;;;;;;4978514;28;20526;-64
2021/01/19 11:09:11;;;;;;;34.53;10.18;;;15.50;59.40;;;;;;4979029;28;20150;-64
2021/01/19 11:11:37;;;;;;;47.88;11.27;;;15.50;58.70;;;;;;4983987;28;20153;-63
2021/01/19 11:14:04;;;;;;;33.42;11.27;;;15.60;59.00;;;;;;4955948;28;20526;-64
2021/01/19 11:16:35;;;;;;;33.05;10.10;;;15.60;58.90;;;;;;4957242;28;20029;-65
2021/01/19 11:19:07;;;;;;;33.77;10.47;;;15.70;59.10;;;;;;4953925;28;20090;-64
2021/01/19 11:21:33;;;;;;;34.75;10.00;;;15.80;60.10;;;;;;4987882;28;20022;-64
2021/01/19 11:24:00;;;;;;;30.95;9.30;;;15.80;60.50;;;;;;4958907;28;20069;-65
2021/01/19 11:26:27;;;;;;;27.63;8.85;;;15.80;60.70;;;;;;4956985;28;20132;-63
2021/01/19 11:28:53;;;;;;;27.02;8.98;;;15.70;60.60;;;;;;4961774;28;20085;-63
2021/01/19 11:31:30;;;;;;;23.80;8.32;;;15.70;61.10;;;;;;4964517;28;20046;-65
2021/01/19 11:33:56;;;;;;;23.55;7.93;;;15.80;61.20;;;;;;4976072;28;20023;-66
2021/01/19 11:36:27;;;;;;;24.48;7.93;;;15.80;61.10;;;;;;4979715;28;20076;-67
2021/01/19 11:38:54;;;;;;;21.63;7.35;;;15.80;61.20;;;;;;4977025;28;20027;-65
2021/01/19 11:41:23;;;;;;;20.88;7.10;;;15.80;60.90;;;;;;4977201;28;20030;-65
2021/01/19 11:43:49;;;;;;;25.20;7.93;;;15.80;61.00;;;;;;4979635;28;20018;-64
2021/01/19 11:46:28;;;;;;;24.30;6.70;;;15.90;60.90;;;;;;4974472;28;20463;-64
2021/01/19 11:48:56;;;;;;;23.83;9.55;;;15.80;60.70;;;;;;4985616;28;20038;-64
2021/01/19 11:51:26;;;;;;;30.80;10.63;;;15.80;61.00;;;;;;4984388;28;20031;-63
2021/01/19 11:53:54;;;;;;;19.58;7.95;;;16.00;60.80;;;;;;4964598;28;20034;-64
2021/01/19 11:56:20;;;;;;;25.73;8.55;;;16.00;60.80;;;;;;4966403;28;20081;-64
2021/01/19 11:58:46;;;;;;;22.70;7.55;;;16.10;59.90;;;;;;4975594;28;20027;-64
2021/01/19 12:01:19;;;;;;;28.65;13.20;;;16.20;59.40;;;;;;4979895;28;20050;-64
2021/01/19 12:03:46;;;;;;;32.03;8.98;;;16.30;59.90;;;;;;4953064;28;20043;-63
2021/01/19 12:06:12;;;;;;;19.95;7.65;;;16.30;59.70;;;;;;4979227;28;20026;-64
2021/01/19 12:08:37;;;;;;;20.60;7.80;;;16.40;59.50;;;;;;4978450;28;20035;-64
2021/01/19 12:11:06;;;;;;;21.92;7.97;;;16.40;59.70;;;;;;4977362;28;20392;-64
2021/01/19 12:13:31;;;;;;;17.92;6.80;;;16.60;59.20;;;;;;4992252;28;20030;-64
2021/01/19 12:15:57;;;;;;;25.02;7.70;;;16.60;59.20;;;;;;4948036;28;20488;-64
2021/01/19 12:18:23;;;;;;;32.58;9.15;;;16.70;59.70;;;;;;4978253;28;20477;-63
2021/01/19 12:20:48;;;;;;;21.55;7.70;;;16.70;60.10;;;;;;4960126;28;20169;-63
2021/01/19 12:23:14;;;;;;;24.30;6.50;;;16.80;60.40;;;;;;4958251;28;20479;-64
2021/01/19 12:25:39;;;;;;;25.02;7.15;;;16.80;60.90;;;;;;4988265;28;20508;-64
2021/01/19 12:28:05;;;;;;;22.73;6.28;;;16.90;60.70;;;;;;4979394;28;20039;-63
2021/01/19 12:30:30;;;;;;;22.98;6.18;;;17.00;60.80;;;;;;4962970;28;20023;-63
2021/01/19 12:32:56;;;;;;;23.98;6.28;;;17.00;61.40;;;;;;4960228;28;20407;-64
2021/01/19 12:35:22;;;;;;;29.75;6.50;;;17.00;61.70;;;;;;4984327;28;20070;-63
2021/01/19 12:37:48;;;;;;;24.40;6.97;;;17.00;62.00;;;;;;4977247;28;20523;-63
2021/01/19 12:40:13;;;;;;;33.65;7.47;;;17.10;62.10;;;;;;4971358;28;20530;-63
2021/01/19 12:42:41;;;;;;;24.10;6.78;;;17.10;61.30;;;;;;4967394;28;20105;-64
2021/01/19 12:45:07;;;;;;;25.17;6.55;;;17.10;61.90;;;;;;4990992;28;20073;-64
2021/01/19 12:47:32;;;;;;;20.92;6.13;;;17.20;61.10;;;;;;4959503;28;20038;-64
2021/01/19 12:49:58;;;;;;;19.60;5.78;;;17.00;61.30;;;;;;4976444;28;20023;-63